Tropical Cyclones
[Index]
Main Index Home Page Stock Weather Photos Extreme Storms Discussion Storm News and Storm Chasing Reports Tropical Cyclones / Hurricanes / Typhoons Weather Data and Links Wild Fires / Bushfires Weather Observation Techniques Weather Picture Catalogue Tornado Pictures and Reports Stock Video Footage and DVDs for sale
Season 2016-2017 Tropical Cyclone DEBBIE Track Map
Season 2016-2017 Summaries: [BoM-AU] [JTWC-AU] [JTWC-SIO] [JTWC-SPAC] [JTWC-SH]
<<- Previous TC | BoM 2016-2017 Season | Next TC ->>

click for intensity scale information  Lat/long Grid: Show Hide

 Date Labels: Show Hide

Bureau of Meteorology Tropical Cyclone Data

Name: DEBBIE

22 Mar 2017 00:00 UTC to 01 Apr 2017 00:00 UTC

    date/time    lat    long    hPa   cat  kts
2017-03-22 00   13.2   152.0   1006         15          
2017-03-22 06   12.0   151.7   1010         15          
2017-03-22 12   12.1   154.0   1011         15          
2017-03-23 00   13.3   152.6   1008         20          
2017-03-23 06   14.1   151.6   1000         20          
2017-03-23 12   14.5   151.5   1000         20          
2017-03-23 18   15.3   151.3   1000         25          
2017-03-24 00   15.9   151.3    999         25          
2017-03-24 06   16.4   151.6    996         25          
2017-03-24 12   16.8   151.8    996         30          
2017-03-24 18   17.0   152.1    991    1    30          
2017-03-25 00   17.3   152.1    991    1    35          
2017-03-25 06   17.6   152.1    990    1    40          
2017-03-25 09   17.7   151.9    991    1    45          
2017-03-25 12   17.7   152.0    986    1    55          
2017-03-25 15   17.8   151.8    984    2    55          
2017-03-25 18   17.9   151.7    984    2    55          
2017-03-25 21   18.0   151.6    984    2    55          
2017-03-26 00   18.1   151.4    986    1    55          
2017-03-26 03   18.2   151.2    983    2    60          
2017-03-26 06   18.3   151.1    978    2    60          
2017-03-26 09   18.4   150.9    980    2    55          
2017-03-26 12   18.4   150.7    982    2    60          
2017-03-26 15   18.5   150.6    979    2    55          
2017-03-26 18   18.7   150.5    980    2    60          
2017-03-26 21   18.8   150.5    981    2    55          
2017-03-27 00   19.1   150.4    974    2    70          
2017-03-27 03   19.2   150.3    961    3    80          
2017-03-27 04   19.4   150.3    957    3    80          
2017-03-27 05   19.4   150.2    952    4    85          
2017-03-27 06   19.5   150.2    959    3    80          
2017-03-27 07   19.5   150.1    952    4    85          
2017-03-27 08   19.5   150.0    952    4    85          
2017-03-27 09   19.5   150.0    952    4    85          
2017-03-27 10   19.6   149.9    948    4    90          
2017-03-27 11   19.6   149.8    947    4    90          
2017-03-27 12   19.5   149.7    949    4    95          
2017-03-27 13   19.6   149.7    945    4    95          
2017-03-27 14   19.7   149.7    944    4    95          
2017-03-27 15   19.8   149.5    945    4    95          
2017-03-27 16   19.8   149.4    946    4    95          
2017-03-27 17   19.7   149.3    946    4    95          
2017-03-27 18   19.7   149.3    949    4    95          
2017-03-27 19   19.8   149.2    946    4    95          
2017-03-27 20   19.8   149.2    943    4    95          
2017-03-27 21   19.8   149.2    943    4    95          
2017-03-27 22   19.9   149.1    943    4    95          
2017-03-27 23   19.9   149.0    943    4    95          
2017-03-28 00   20.0   148.9    956    3    90          
2017-03-28 01   20.1   148.8    943    4    105          
2017-03-28 02   20.1   148.8    943    4    100          
2017-03-28 02   20.2   148.7    957    3    80          
2017-03-28 03   20.3   148.6    943    4    100          
2017-03-28 04   20.3   148.5    949    4    95          
2017-03-28 05   20.3   148.5    958    3    85          
2017-03-28 06   20.4   148.4    965    3    70          
2017-03-28 07   20.4   148.4    968    3    72          
2017-03-28 08   20.4   148.3    974    2    66          
2017-03-28 09   20.4   148.3    976    2    62          
2017-03-28 10   20.6   148.1    978    2    60          
2017-03-28 11   20.7   147.9    983    2    55          
2017-03-28 12   20.7   147.9    980    2    50          
2017-03-28 13   20.7   147.7    987    1    50          
2017-03-28 14   20.8   147.5    990    1    45          
2017-03-28 15   20.8   147.4    990    1    45          
2017-03-28 16   20.9   147.3    994    1    40          
2017-03-28 17   21.0   147.2    995    1    30          
2017-03-28 18   21.2   147.3    989    1    35          
2017-03-28 19   21.2   147.2    995    1                
2017-03-28 20   21.3   147.1    995    1                
2017-03-29 00   21.6   146.9    994    1    30          
2017-03-29 06   22.1   146.9    995    1    25          
2017-03-29 12   22.9   147.4    999         20          
2017-03-29 18   24.0   148.0    999         20          
2017-03-30 00   24.7   148.8   1002         20          
2017-03-30 03   25.3   150.1   1000                     
2017-03-30 04   25.5   150.3   1000                     
2017-03-30 05   25.6   151.4    999                     
2017-03-30 06   25.9   152.7    999         25          
2017-03-30 07   26.3   152.9    998                     
2017-03-30 08   26.8   153.0    997                     
2017-03-30 09   27.2   152.9    997                     
2017-03-30 10   27.5   152.9    996                     
2017-03-30 11   27.7   153.0    996                     
2017-03-30 12   27.8   153.1    994    1    35          
2017-03-30 13   27.9   153.3    996                     
2017-03-30 14   27.9   153.4    996                     
2017-03-30 16   28.2   153.8    996                     
2017-03-30 18   27.9   154.2    995    1    35          
2017-03-31 00   28.0   156.1    998         30          
2017-03-31 06   28.2   157.1    998         30          
2017-03-31 12   28.5   158.1    999         30          
2017-03-31 18   28.9   158.7   1000         25          
2017-04-01 00   29.2   159.2   1002         20          
Winds are 10-min average.

Tropical cyclone tracks developed by Michael Bath using data from the Bureau of Meteorology and Google Maps.


[Australian Severe Weather index] [Copyright Notice] [Email Contacts] [Search This Site] [Privacy Policy]
Document: tropical_cyclone_debbie.htm Updated: 10 July 2018